Impacts METAR Board INFO
IDs:

KFLL - Ft Lauderdale-Hollyw, FL, US

Updated at: 0937 UTC 20 Nov 2017
Potential Impact None Slight Moderate High
Time19/21Z 19/22Z 19/23Z 20/00Z 20/01Z 20/02Z 20/03Z 20/04Z 20/05Z 20/06Z 20/07Z 20/08Z 20/09Z
VIS10 10 10 10 10 10 10 10 10 10 10 10 10
CIG-- -- -- -- -- -- -- -- -- -- -- -- --
CoverFEWFEWFEWFEWFEWCLRCLRFEWFEWCLRCLRCLRCLR
FltCatVFRVFRVFRVFRVFRVFRVFRVFRVFRVFRVFRVFRVFR
WX--------------------------
WDir2902702402202402700290310310340360360
WSpd8 6 4 4 5 4 0 3 3 4 6 6 9
WGst-- -- -- -- -- -- -- -- -- -- -- -- --
Raw hourly METARs
KFLL 192053Z 29008KT 10SM FEW045 27/16 A2988 RMK AO2 SLP116 T02670161 56011
KFLL 192153Z 27006KT 10SM FEW045 26/17 A2989 RMK AO2 SLP120 T02610167
KFLL 192253Z 24004KT 10SM FEW045 FEW100 25/17 A2990 RMK AO2 SLP125 T02500167
KFLL 192353Z 22004KT 10SM FEW045 25/17 A2991 RMK AO2 SLP129 T02500167 10272 20244 53013
KFLL 200053Z COR 24005KT 10SM FEW050 24/17 A2993 RMK AO2 SLP134 T02390172
KFLL 200153Z 27004KT 10SM CLR 23/18 A2995 RMK AO2 SLP140 T02330178
KFLL 200253Z 00000KT 10SM CLR 23/18 A2996 RMK AO2 SLP144 T02280183 51015
KFLL 200353Z 29003KT 10SM FEW070 22/19 A2997 RMK AO2 SLP148 T02220194
KFLL 200453Z 31003KT 10SM FEW070 22/20 A2997 RMK AO2 SLP149 T02170200 402720183
KFLL 200553Z 31004KT 10SM CLR 22/21 A2997 RMK AO2 SLP149 T02170206 10250 20217 51004
KFLL 200653Z 34006KT 10SM CLR 21/21 A2997 RMK AO2 SLP147 T02110206
KFLL 200753Z 36006KT 10SM CLR 21/21 A2997 RMK AO2 SLP150 T02060206
KFLL 200853Z 36009KT 10SM CLR 21/20 A2998 RMK AO2 SLP151 T02060200 53002